createdAt,value
2023-03-25T00:01:30.685Z,8.13
2023-03-25T00:03:59.666Z,9.40
2023-03-25T00:06:28.700Z,6.33
2023-03-25T00:08:56.901Z,7.20
2023-03-25T00:11:29.130Z,8.27
2023-03-25T00:13:58.125Z,8.53
2023-03-25T00:16:27.358Z,8.53
2023-03-25T00:19:00.159Z,6.33
2023-03-25T00:21:28.674Z,6.50
2023-03-25T00:23:58.381Z,10.63
2023-03-25T00:26:30.137Z,8.77
2023-03-25T00:28:59.668Z,9.00
2023-03-25T00:31:27.893Z,8.10
2023-03-25T00:33:58.697Z,7.83
2023-03-25T00:36:30.213Z,8.63
2023-03-25T00:38:58.715Z,8.73
2023-03-25T00:41:27.076Z,9.07
2023-03-25T00:43:57.705Z,7.47
2023-03-25T00:46:31.505Z,11.00
2023-03-25T00:49:02.149Z,9.77
2023-03-25T00:51:33.971Z,9.43
2023-03-25T00:54:03.475Z,8.70
2023-03-25T00:56:33.795Z,9.27
2023-03-25T00:59:02.734Z,9.97
2023-03-25T01:01:31.355Z,8.07
2023-03-25T01:04:01.588Z,9.00
2023-03-25T01:06:35.712Z,9.83
2023-03-25T01:09:06.496Z,8.43
2023-03-25T01:11:38.777Z,10.77
2023-03-25T01:14:09.598Z,9.27
2023-03-25T01:16:38.723Z,10.63
2023-03-25T01:19:08.358Z,10.50
2023-03-25T01:21:37.567Z,10.97
2023-03-25T01:24:06.988Z,10.77
2023-03-25T01:26:35.726Z,11.37
2023-03-25T01:29:04.098Z,10.23
2023-03-25T01:31:35.736Z,11.10
2023-03-25T01:34:04.713Z,11.47
2023-03-25T01:36:36.087Z,10.23
2023-03-25T01:39:06.713Z,10.17
2023-03-25T01:41:49.054Z,10.03
2023-03-25T01:44:57.757Z,15.17
2023-03-25T01:47:27.355Z,15.83
2023-03-25T01:49:56.750Z,10.67
2023-03-25T01:52:29.707Z,10.33
2023-03-25T01:55:01.761Z,9.47
2023-03-25T01:57:31.731Z,10.47
2023-03-25T02:00:03.855Z,9.20
2023-03-25T02:02:40.866Z,9.43
2023-03-25T02:05:18.747Z,11.53
2023-03-25T02:07:50.469Z,9.90
2023-03-25T02:10:21.785Z,10.57
2023-03-25T02:12:49.993Z,9.53
2023-03-25T02:15:20.649Z,10.50
2023-03-25T02:18:04.153Z,12.13
2023-03-25T02:21:23.357Z,11.00
2023-03-25T02:24:35.741Z,12.40
2023-03-25T02:27:28.287Z,13.03
2023-03-25T02:30:23.757Z,10.33
2023-03-25T02:33:19.388Z,10.40
2023-03-25T02:36:06.926Z,13.53
2023-03-25T02:38:43.319Z,14.00
2023-03-25T02:41:19.746Z,13.37
2023-03-25T02:43:53.035Z,13.97
2023-03-25T02:46:26.785Z,14.10
2023-03-25T02:49:00.314Z,17.27
2023-03-25T02:51:32.591Z,17.10
2023-03-25T02:54:08.491Z,12.37
2023-03-25T02:56:39.776Z,14.83
2023-03-25T02:59:09.853Z,11.43
2023-03-25T03:01:38.047Z,18.27
2023-03-25T03:04:07.787Z,12.13
2023-03-25T03:06:41.248Z,14.97
2023-03-25T03:09:25.811Z,14.23
2023-03-25T03:12:07.782Z,13.70
2023-03-25T03:14:52.760Z,12.70
2023-03-25T03:17:27.462Z,12.67
2023-03-25T03:20:09.984Z,12.40
2023-03-25T03:22:43.726Z,11.90
2023-03-25T03:25:23.750Z,13.30
2023-03-25T03:27:57.243Z,12.33
2023-03-25T03:30:59.890Z,13.37
2023-03-25T03:33:33.519Z,12.03
2023-03-25T03:36:06.802Z,12.10
2023-03-25T03:38:39.087Z,13.57
2023-03-25T03:41:14.100Z,13.20
2023-03-25T03:43:46.088Z,11.17
2023-03-25T03:46:22.372Z,12.23
2023-03-25T03:48:56.269Z,11.00
2023-03-25T03:51:30.803Z,12.70
2023-03-25T03:54:02.802Z,11.30
2023-03-25T03:56:38.794Z,12.37
2023-03-25T03:59:13.871Z,13.67
2023-03-25T04:01:47.856Z,11.77
2023-03-25T04:04:20.631Z,11.87
2023-03-25T04:06:56.999Z,11.27
2023-03-25T04:09:33.878Z,11.83
2023-03-25T04:12:11.030Z,11.87
2023-03-25T04:14:40.147Z,11.00
2023-03-25T04:17:08.391Z,11.30
2023-03-25T04:19:37.814Z,11.57
2023-03-25T04:22:08.889Z,13.47
2023-03-25T04:24:37.795Z,13.10
2023-03-25T04:27:09.845Z,12.50
2023-03-25T04:29:40.215Z,11.37
2023-03-25T04:32:10.076Z,12.43
2023-03-25T04:34:38.339Z,13.13
2023-03-25T04:37:06.779Z,12.07
2023-03-25T04:39:35.822Z,11.97
2023-03-25T04:42:06.366Z,12.50
2023-03-25T04:44:38.921Z,11.53
2023-03-25T04:47:14.371Z,13.80
2023-03-25T04:49:45.149Z,11.97
2023-03-25T04:52:13.813Z,12.00
2023-03-25T04:54:42.804Z,13.47
2023-03-25T04:57:10.960Z,13.57
2023-03-25T04:59:45.586Z,12.67
2023-03-25T05:02:14.581Z,13.23
2023-03-25T05:04:49.923Z,11.93
2023-03-25T05:07:18.988Z,11.30
2023-03-25T05:09:48.832Z,14.73
2023-03-25T05:12:17.264Z,12.10
2023-03-25T05:14:47.857Z,12.13
2023-03-25T05:17:16.044Z,12.73
2023-03-25T05:19:44.830Z,12.23
2023-03-25T05:22:13.161Z,12.33
2023-03-25T05:24:45.389Z,11.23
2023-03-25T05:27:14.739Z,11.53
2023-03-25T05:29:44.685Z,12.30
2023-03-25T05:32:18.814Z,13.20
2023-03-25T05:34:47.571Z,10.90
2023-03-25T05:37:16.838Z,10.93
2023-03-25T05:39:45.751Z,16.20
2023-03-25T05:42:14.910Z,13.10
2023-03-25T05:44:51.873Z,11.23
2023-03-25T05:47:23.923Z,12.73
2023-03-25T05:49:54.846Z,11.57
2023-03-25T05:52:24.713Z,12.50
2023-03-25T05:54:57.858Z,13.17
2023-03-25T05:57:26.164Z,12.20
2023-03-25T05:59:55.656Z,12.03
2023-03-25T06:02:26.938Z,12.33
2023-03-25T06:04:55.378Z,14.77
2023-03-25T06:07:26.823Z,15.23
2023-03-25T06:09:57.063Z,11.83
2023-03-25T06:12:27.848Z,12.30
2023-03-25T06:14:56.725Z,12.90
2023-03-25T06:17:27.904Z,12.13
2023-03-25T06:19:56.054Z,13.97
2023-03-25T06:22:25.852Z,12.03
2023-03-25T06:24:54.045Z,14.37
2023-03-25T06:27:23.955Z,14.77
2023-03-25T06:29:54.165Z,13.87
2023-03-25T06:32:22.876Z,12.87
2023-03-25T06:34:52.384Z,15.27
2023-03-25T06:37:22.847Z,13.27
2023-03-25T06:39:59.940Z,16.00
2023-03-25T06:42:30.850Z,13.17
2023-03-25T06:45:19.028Z,13.47
2023-03-25T06:48:02.381Z,13.00
2023-03-25T06:50:32.308Z,13.33
2023-03-25T06:53:00.857Z,11.37
2023-03-25T06:55:29.855Z,13.07
2023-03-25T06:58:01.856Z,12.07
2023-03-25T07:00:30.858Z,11.80
2023-03-25T07:02:59.936Z,11.83
2023-03-25T07:05:28.253Z,11.87
2023-03-25T07:08:02.378Z,11.97
2023-03-25T07:10:32.338Z,13.40
2023-03-25T07:13:00.667Z,11.87
2023-03-25T07:15:29.897Z,14.20
2023-03-25T07:17:58.192Z,13.47
2023-03-25T07:20:26.367Z,11.43
2023-03-25T07:22:59.871Z,14.03
2023-03-25T07:25:28.099Z,11.37
2023-03-25T07:27:56.465Z,11.93
2023-03-25T07:30:24.819Z,12.70
2023-03-25T07:32:53.045Z,12.90
2023-03-25T07:35:21.700Z,12.37
2023-03-25T07:37:49.939Z,12.27
2023-03-25T07:40:19.799Z,11.03
2023-03-25T07:42:48.724Z,11.63
2023-03-25T07:45:22.287Z,12.73
2023-03-25T07:47:54.587Z,12.33
2023-03-25T07:50:25.546Z,10.97
2023-03-25T07:52:54.581Z,13.07
2023-03-25T07:55:24.171Z,16.47
2023-03-25T07:57:52.849Z,13.23
2023-03-25T08:00:22.317Z,13.80
2023-03-25T08:02:51.833Z,14.50
2023-03-25T08:05:22.423Z,11.27
2023-03-25T08:07:50.958Z,12.37
2023-03-25T08:10:20.233Z,12.10
2023-03-25T08:12:53.641Z,12.80
2023-03-25T08:15:24.650Z,12.00
2023-03-25T08:17:58.036Z,12.83
2023-03-25T08:20:26.312Z,12.17
2023-03-25T08:22:54.640Z,12.40
2023-03-25T08:25:22.823Z,13.73
2023-03-25T08:27:53.037Z,12.13
2023-03-25T08:30:21.213Z,12.27
2023-03-25T08:32:54.430Z,12.43
2023-03-25T08:35:24.724Z,10.87
2023-03-25T08:37:53.072Z,12.83
2023-03-25T08:40:21.621Z,9.73
2023-03-25T08:42:49.790Z,11.63
2023-03-25T08:45:22.321Z,12.13
2023-03-25T08:47:50.566Z,10.80
2023-03-25T08:50:18.962Z,12.63
2023-03-25T08:52:47.189Z,8.77
2023-03-25T08:55:16.261Z,10.90
2023-03-25T08:57:44.964Z,9.43
2023-03-25T09:00:15.899Z,9.40
2023-03-25T09:02:46.064Z,10.20
2023-03-25T09:05:16.075Z,7.60
2023-03-25T09:07:44.402Z,8.73
2023-03-25T09:10:13.147Z,9.73
2023-03-25T09:12:41.343Z,10.30
2023-03-25T09:15:12.079Z,8.93
2023-03-25T09:17:43.054Z,9.33
2023-03-25T09:20:13.345Z,9.07
2023-03-25T09:22:42.369Z,7.20
2023-03-25T09:25:10.907Z,7.97
2023-03-25T09:27:39.241Z,7.57
2023-03-25T09:30:11.133Z,7.30
2023-03-25T09:32:39.646Z,9.40
2023-03-25T09:35:08.881Z,10.13
2023-03-25T09:37:39.512Z,8.80
2023-03-25T09:40:09.279Z,7.30
2023-03-25T09:42:48.830Z,8.67
2023-03-25T09:45:30.334Z,6.77
2023-03-25T09:48:03.547Z,8.07
2023-03-25T09:50:38.456Z,7.37
2023-03-25T09:53:25.389Z,7.37
2023-03-25T09:55:58.508Z,5.60
2023-03-25T09:58:35.980Z,6.60
2023-03-25T10:01:16.375Z,8.13
2023-03-25T10:03:55.327Z,5.67
2023-03-25T10:06:26.940Z,6.10
2023-03-25T10:09:16.953Z,9.13
2023-03-25T10:11:50.924Z,6.60
2023-03-25T10:14:28.940Z,5.77
2023-03-25T10:17:11.134Z,7.73
2023-03-25T10:19:54.976Z,8.40
2023-03-25T10:22:29.624Z,8.40
2023-03-25T10:25:03.017Z,7.60
2023-03-25T10:27:37.290Z,7.23
2023-03-25T10:30:14.462Z,4.97
2023-03-25T10:32:45.656Z,6.27
2023-03-25T10:35:22.997Z,6.67
2023-03-25T10:37:54.424Z,5.00
2023-03-25T10:40:30.427Z,6.67
2023-03-25T10:43:13.511Z,6.83
2023-03-25T10:45:44.034Z,6.73
2023-03-25T10:48:15.391Z,6.03
2023-03-25T10:50:46.565Z,18.07
2023-03-25T10:53:22.045Z,5.73
2023-03-25T10:55:56.030Z,5.43
2023-03-25T10:58:25.533Z,6.10
2023-03-25T11:00:53.957Z,5.27
2023-03-25T11:03:29.022Z,4.33
2023-03-25T11:05:57.982Z,6.23
2023-03-25T11:08:27.246Z,5.40
2023-03-25T11:11:02.685Z,5.50
2023-03-25T11:13:32.982Z,4.47
2023-03-25T11:16:04.616Z,5.80
2023-03-25T11:18:40.433Z,4.23
2023-03-25T11:21:12.692Z,2.80
2023-03-25T11:23:46.393Z,2.93
2023-03-25T11:26:20.686Z,2.87
2023-03-25T11:28:50.815Z,3.00
2023-03-25T11:31:23.758Z,5.07
2023-03-25T11:34:07.038Z,4.70
2023-03-25T11:36:39.386Z,2.17
2023-03-25T11:39:17.536Z,4.17
2023-03-25T11:41:52.027Z,3.73
2023-03-25T11:44:26.668Z,3.13
2023-03-25T11:46:59.463Z,5.00
2023-03-25T11:49:29.703Z,2.47
2023-03-25T11:52:04.986Z,2.40
2023-03-25T11:54:35.544Z,2.03
2023-03-25T11:57:11.260Z,2.77
2023-03-25T11:59:45.122Z,3.80
2023-03-25T12:02:25.052Z,4.23
2023-03-25T12:05:02.586Z,3.70
2023-03-25T12:07:41.945Z,5.30
2023-03-25T12:10:20.332Z,5.20
2023-03-25T12:13:07.990Z,3.88
2023-03-25T12:15:43.691Z,4.60
2023-03-25T12:18:27.534Z,2.78
2023-03-25T12:21:06.230Z,2.92
2023-03-25T12:23:47.587Z,2.13
2023-03-25T12:26:19.637Z,2.63
2023-03-25T12:29:13.484Z,4.95
2023-03-25T12:31:58.953Z,5.55
2023-03-25T12:34:39.495Z,3.15
2023-03-25T12:37:21.620Z,2.95
2023-03-25T12:40:03.984Z,3.63
2023-03-25T12:42:43.848Z,2.77
2023-03-25T12:45:39.677Z,3.43
2023-03-25T12:48:18.279Z,5.27
2023-03-25T12:50:55.409Z,4.40
2023-03-25T12:53:38.082Z,5.80
2023-03-25T12:56:17.431Z,5.23
2023-03-25T12:59:04.274Z,5.53
2023-03-25T13:01:49.579Z,4.13
2023-03-25T13:04:54.728Z,4.07
2023-03-25T13:07:29.756Z,4.67
2023-03-25T13:10:08.719Z,4.30
2023-03-25T13:12:42.725Z,4.07
2023-03-25T13:15:26.092Z,4.37
2023-03-25T13:18:00.219Z,3.40
2023-03-25T13:20:32.266Z,2.50
2023-03-25T13:23:04.768Z,3.40
2023-03-25T13:25:42.955Z,2.97
2023-03-25T13:28:16.181Z,3.80
2023-03-25T13:30:50.433Z,5.57
2023-03-25T13:33:25.085Z,4.47
2023-03-25T13:35:58.571Z,6.60
2023-03-25T13:38:32.243Z,3.70
2023-03-25T13:41:12.983Z,4.03
2023-03-25T13:43:53.053Z,3.93
2023-03-25T13:46:24.227Z,4.00
2023-03-25T13:49:01.462Z,5.63
2023-03-25T13:51:29.750Z,6.03
2023-03-25T13:54:02.061Z,3.33
2023-03-25T13:56:59.206Z,3.90
2023-03-25T14:00:03.023Z,4.23
2023-03-25T14:03:07.347Z,5.73
2023-03-25T14:06:00.696Z,3.80
2023-03-25T14:08:59.044Z,5.27
2023-03-25T14:11:30.500Z,9.10
2023-03-25T14:14:02.144Z,6.47
2023-03-25T14:16:37.200Z,6.00
2023-03-25T14:19:14.244Z,5.53
2023-03-25T14:21:46.008Z,3.77
2023-03-25T14:24:22.362Z,5.07
2023-03-25T14:26:53.835Z,5.63
2023-03-25T14:29:35.860Z,6.37
2023-03-25T14:32:07.679Z,3.37
2023-03-25T14:34:39.296Z,4.10
2023-03-25T14:37:40.393Z,2.30
2023-03-25T14:40:55.513Z,2.40
2023-03-25T14:43:33.700Z,4.13
2023-03-25T14:46:07.307Z,4.37
2023-03-25T14:48:45.004Z,4.00
2023-03-25T14:51:23.853Z,5.00
2023-03-25T14:53:57.108Z,2.37
2023-03-25T14:56:31.341Z,4.00
2023-03-25T14:59:04.132Z,4.60
2023-03-25T15:01:40.814Z,2.87
2023-03-25T15:04:13.356Z,4.13
2023-03-25T15:06:42.806Z,4.10
2023-03-25T15:09:18.074Z,2.93
2023-03-25T15:11:58.225Z,1.50
2023-03-25T15:14:32.887Z,1.63
2023-03-25T15:17:10.563Z,2.50
2023-03-25T15:20:15.781Z,1.13
2023-03-25T15:22:44.723Z,0.60
2023-03-25T15:25:18.609Z,1.53
2023-03-25T15:28:03.534Z,0.50
2023-03-25T15:30:53.382Z,0.50
2023-03-25T15:33:42.199Z,0.50
2023-03-25T15:36:45.716Z,0.50
2023-03-25T15:39:29.586Z,1.17
2023-03-25T15:42:27.084Z,3.00
2023-03-25T15:45:28.745Z,1.10
2023-03-25T15:48:17.757Z,0.93
2023-03-25T15:51:02.756Z,1.80
2023-03-25T15:53:55.068Z,0.80
2023-03-25T15:56:26.704Z,0.77
2023-03-25T15:59:03.295Z,0.70
2023-03-25T16:01:34.124Z,0.77
2023-03-25T16:04:06.405Z,1.30
2023-03-25T16:06:41.373Z,0.70
2023-03-25T16:09:16.125Z,1.30
2023-03-25T16:11:44.953Z,1.37
2023-03-25T16:14:17.390Z,1.80
2023-03-25T16:16:49.094Z,1.50
2023-03-25T16:19:22.844Z,1.60
2023-03-25T16:21:54.728Z,1.80
2023-03-25T16:24:33.814Z,1.70
2023-03-25T16:27:11.640Z,1.63
2023-03-25T16:29:49.371Z,1.60
2023-03-25T16:32:21.838Z,1.80
2023-03-25T16:34:51.367Z,2.97
2023-03-25T16:37:22.944Z,2.03
2023-03-25T16:39:55.779Z,2.23
2023-03-25T16:42:28.192Z,3.37
2023-03-25T16:44:58.044Z,3.37
2023-03-25T16:47:26.954Z,2.30
2023-03-25T16:49:57.291Z,4.67
2023-03-25T16:52:30.355Z,2.60
2023-03-25T16:55:28.718Z,2.50
2023-03-25T16:57:57.108Z,4.50
2023-03-25T17:00:28.561Z,4.60
2023-03-25T17:02:57.162Z,4.43
2023-03-25T17:05:27.269Z,5.03
2023-03-25T17:07:59.349Z,4.13
2023-03-25T17:10:30.160Z,13.40
2023-03-25T17:13:04.212Z,6.90
2023-03-25T17:15:35.019Z,3.30
2023-03-25T17:18:10.566Z,4.27
2023-03-25T17:20:41.381Z,6.53
2023-03-25T17:23:22.786Z,4.83
2023-03-25T17:25:53.718Z,3.37
2023-03-25T17:28:32.941Z,4.50
2023-03-25T17:31:22.748Z,6.43
2023-03-25T17:33:52.776Z,4.37
2023-03-25T17:36:25.840Z,4.83
2023-03-25T17:38:56.077Z,2.90
2023-03-25T17:41:29.857Z,3.60
2023-03-25T17:43:59.752Z,4.00
2023-03-25T17:46:32.090Z,4.27
2023-03-25T17:49:01.510Z,4.03
2023-03-25T17:51:31.508Z,4.40
2023-03-25T17:54:01.480Z,4.00
2023-03-25T17:56:30.169Z,5.43
2023-03-25T17:59:01.565Z,6.57
2023-03-25T18:01:32.632Z,5.97
2023-03-25T18:04:01.016Z,6.33
2023-03-25T18:06:29.383Z,6.03
2023-03-25T18:08:57.834Z,6.90
2023-03-25T18:11:26.791Z,6.50
2023-03-25T18:13:54.986Z,6.30
2023-03-25T18:16:23.941Z,6.97
2023-03-25T18:18:56.245Z,7.10
2023-03-25T18:21:24.906Z,8.73
2023-03-25T18:23:53.051Z,7.30
2023-03-25T18:26:25.470Z,7.73
2023-03-25T18:28:53.712Z,8.43
2023-03-25T18:31:24.058Z,7.43
2023-03-25T18:33:54.194Z,7.00
2023-03-25T18:36:23.816Z,8.93
2023-03-25T18:38:52.172Z,8.53
2023-03-25T18:41:20.363Z,8.73
2023-03-25T18:43:52.138Z,9.47
2023-03-25T18:46:21.515Z,10.77
2023-03-25T18:48:49.790Z,9.90
2023-03-25T18:51:22.978Z,10.20
2023-03-25T18:53:51.311Z,9.23
2023-03-25T18:56:20.573Z,6.80
2023-03-25T18:58:48.872Z,8.90
2023-03-25T19:01:18.833Z,8.63
2023-03-25T19:03:47.208Z,7.07
2023-03-25T19:06:16.028Z,8.43
2023-03-25T19:08:46.869Z,5.50
2023-03-25T19:11:20.972Z,7.47
2023-03-25T19:13:50.891Z,5.20
2023-03-25T19:16:19.314Z,4.87
2023-03-25T19:18:48.046Z,7.67
2023-03-25T19:21:17.769Z,6.93
2023-03-25T19:23:47.586Z,6.77
2023-03-25T19:26:16.290Z,7.33
2023-03-25T19:28:44.487Z,6.20
2023-03-25T19:31:16.625Z,7.97
2023-03-25T19:33:45.195Z,6.17
2023-03-25T19:36:15.448Z,4.60
2023-03-25T19:38:43.971Z,4.40
2023-03-25T19:41:16.043Z,7.30
2023-03-25T19:43:44.561Z,7.90
2023-03-25T19:46:13.834Z,6.87
2023-03-25T19:48:42.096Z,4.53
2023-03-25T19:51:10.373Z,7.60
2023-03-25T19:53:38.541Z,6.97
2023-03-25T19:56:07.561Z,10.37
2023-03-25T19:58:40.242Z,8.30
2023-03-25T20:01:08.590Z,13.37
2023-03-25T20:03:38.812Z,22.00
2023-03-25T20:06:08.185Z,38.40
2023-03-25T20:08:39.165Z,7.93
2023-03-25T20:11:12.090Z,4.27
2023-03-25T20:13:41.848Z,3.50
2023-03-25T20:16:10.936Z,4.47
2023-03-25T20:18:41.384Z,2.33
2023-03-25T20:21:10.422Z,4.37
2023-03-25T20:23:38.690Z,1.90
2023-03-25T20:26:07.429Z,2.33
2023-03-25T20:28:37.201Z,2.27
2023-03-25T20:31:18.899Z,2.40
2023-03-25T20:33:47.752Z,3.63
2023-03-25T20:36:15.967Z,2.47
2023-03-25T20:38:56.090Z,3.87
2023-03-25T20:41:28.882Z,2.97
2023-03-25T20:43:58.027Z,3.40
2023-03-25T20:46:28.581Z,3.00
2023-03-25T20:48:57.947Z,4.83
2023-03-25T20:51:26.680Z,3.50
2023-03-25T20:53:57.039Z,5.00
2023-03-25T20:56:25.487Z,5.33
2023-03-25T20:58:54.037Z,3.60
2023-03-25T21:01:22.231Z,5.23
2023-03-25T21:03:52.105Z,3.63
2023-03-25T21:06:26.667Z,4.43
2023-03-25T21:08:56.888Z,5.60
2023-03-25T21:11:26.441Z,4.60
2023-03-25T21:13:57.863Z,5.53
2023-03-25T21:16:26.223Z,6.47
2023-03-25T21:18:58.221Z,5.80
2023-03-25T21:21:26.455Z,8.87
2023-03-25T21:23:54.679Z,6.13
2023-03-25T21:26:25.925Z,9.27
2023-03-25T21:28:54.205Z,8.40
2023-03-25T21:31:22.831Z,7.43
2023-03-25T21:33:52.987Z,8.40
2023-03-25T21:36:24.803Z,18.73
2023-03-25T21:38:57.897Z,9.83
2023-03-25T21:41:26.711Z,8.00
2023-03-25T21:43:54.887Z,9.10
2023-03-25T21:46:27.226Z,9.20
2023-03-25T21:48:58.590Z,10.77
2023-03-25T21:51:32.497Z,10.07
2023-03-25T21:54:06.412Z,8.87
2023-03-25T21:56:35.333Z,8.23
2023-03-25T21:59:04.654Z,9.77
2023-03-25T22:01:33.940Z,8.67
2023-03-25T22:04:04.268Z,9.40
2023-03-25T22:06:35.724Z,9.23
2023-03-25T22:09:06.217Z,10.33
2023-03-25T22:11:39.207Z,9.53
2023-03-25T22:14:09.445Z,9.83
2023-03-25T22:16:38.885Z,9.27
2023-03-25T22:19:07.516Z,10.63
2023-03-25T22:21:41.945Z,9.50
2023-03-25T22:24:10.519Z,9.37
2023-03-25T22:26:40.864Z,10.83
2023-03-25T22:29:10.862Z,9.33
2023-03-25T22:31:41.136Z,12.13
2023-03-25T22:34:12.885Z,12.87
2023-03-25T22:36:46.227Z,11.03
2023-03-25T22:39:16.925Z,9.47
2023-03-25T22:41:45.713Z,11.40
2023-03-25T22:44:17.936Z,9.10
2023-03-25T22:46:46.681Z,8.67
2023-03-25T22:49:19.886Z,11.10
2023-03-25T22:51:49.884Z,10.40
2023-03-25T22:54:18.312Z,11.73
2023-03-25T22:56:47.939Z,12.60
2023-03-25T22:59:20.132Z,13.63
2023-03-25T23:01:48.417Z,14.10
2023-03-25T23:04:16.768Z,13.80
2023-03-25T23:06:51.234Z,11.73
2023-03-25T23:09:42.918Z,11.70
2023-03-25T23:12:12.396Z,9.23
2023-03-25T23:14:43.230Z,10.90
2023-03-25T23:17:12.053Z,9.93
2023-03-25T23:19:41.908Z,9.03
2023-03-25T23:22:10.942Z,11.07
2023-03-25T23:24:40.694Z,8.73
2023-03-25T23:27:13.045Z,8.30
2023-03-25T23:29:41.817Z,8.57
2023-03-25T23:32:11.320Z,10.80
2023-03-25T23:34:40.896Z,8.83
2023-03-25T23:37:13.675Z,11.53
2023-03-25T23:39:46.364Z,10.37
2023-03-25T23:42:14.634Z,9.20
2023-03-25T23:44:43.750Z,9.40
2023-03-25T23:47:16.904Z,10.13
2023-03-25T23:49:45.008Z,10.43
2023-03-25T23:52:13.913Z,8.60
2023-03-25T23:54:43.488Z,7.33
2023-03-25T23:57:36.763Z,7.87
